Terminal Aerodrome Forecast
Issued by NWS Midland/Odessa, TX

Home | Current Version | Previous Version | Text Only | Print | Product List | Glossary On
Versions: 1 2 3 4 5 6 7 8 9 10 11 12 13 14 15 16 17 18 19 20 21 22 23 24 25 26 27 28
000
FTUS44 KMAF 250900 AAA
TAFMAF
TAF AMD
KMAF 250946Z 2510/2606 16009KT P6SM SCT250
      TEMPO 2510/2512 VRB20G35KT 6SM -TSRA BR BKN050CB
     FM251700 25011G19KT P6SM FEW050 SCT250
     FM260100 21011KT P6SM FEW250=

USA.gov is the U.S. government's official web portal to all federal, state and local government web resources and services.